createdAt,value
2022-07-29T00:01:09.410Z,20.08
2022-07-29T00:03:22.837Z,19.96
2022-07-29T00:05:26.025Z,19.99
2022-07-29T00:07:29.424Z,19.99
2022-07-29T00:09:33.836Z,20.02
2022-07-29T00:11:54.556Z,20.02
2022-07-29T00:13:57.490Z,19.97
2022-07-29T00:16:03.699Z,19.99
2022-07-29T00:18:08.879Z,19.97
2022-07-29T00:20:12.455Z,19.93
2022-07-29T00:22:15.584Z,19.92
2022-07-29T00:24:19.028Z,19.91
2022-07-29T00:26:23.727Z,19.96
2022-07-29T00:28:26.789Z,19.85
2022-07-29T00:30:29.849Z,19.86
2022-07-29T00:32:36.185Z,19.88
2022-07-29T00:34:56.681Z,19.88
2022-07-29T00:36:59.794Z,19.88
2022-07-29T00:39:02.734Z,19.83
2022-07-29T00:41:08.732Z,19.79
2022-07-29T00:43:14.022Z,19.66
2022-07-29T00:45:17.623Z,19.63
2022-07-29T00:47:20.879Z,19.61
2022-07-29T00:49:24.052Z,19.57
2022-07-29T00:51:27.863Z,19.60
2022-07-29T00:53:31.883Z,19.57
2022-07-29T00:55:35.135Z,19.56
2022-07-29T00:57:38.883Z,19.45
2022-07-29T00:59:43.201Z,19.44
2022-07-29T01:01:46.226Z,19.43
2022-07-29T01:03:49.436Z,19.33
2022-07-29T01:05:52.874Z,19.32
2022-07-29T01:07:58.407Z,19.30
2022-07-29T01:10:02.176Z,19.32
2022-07-29T01:12:06.817Z,19.31
2022-07-29T01:14:12.127Z,19.25
2022-07-29T01:16:20.871Z,19.25
2022-07-29T01:18:28.141Z,19.30
2022-07-29T01:20:45.785Z,19.23
2022-07-29T01:23:02.789Z,19.27
2022-07-29T01:25:14.992Z,19.23
2022-07-29T01:27:30.626Z,19.22
2022-07-29T01:29:40.457Z,19.24
2022-07-29T01:31:55.189Z,19.22
2022-07-29T01:34:05.567Z,19.21
2022-07-29T01:36:13.363Z,19.22
2022-07-29T01:38:20.078Z,19.17
2022-07-29T01:40:27.989Z,19.20
2022-07-29T01:42:36.855Z,19.22
2022-07-29T01:44:45.798Z,19.21
2022-07-29T01:46:55.077Z,19.23
2022-07-29T01:49:02.587Z,19.20
2022-07-29T01:51:09.826Z,19.13
2022-07-29T01:53:15.325Z,19.10
2022-07-29T01:55:20.021Z,19.12
2022-07-29T01:57:30.593Z,19.04
2022-07-29T01:59:36.150Z,19.08
2022-07-29T02:01:41.926Z,19.07
2022-07-29T02:03:46.497Z,19.09
2022-07-29T02:05:50.440Z,19.11
2022-07-29T02:07:54.503Z,19.03
2022-07-29T02:09:59.159Z,18.94
2022-07-29T02:12:03.394Z,19.01
2022-07-29T02:14:07.699Z,19.02
2022-07-29T02:16:12.035Z,18.97
2022-07-29T02:18:19.142Z,18.86
2022-07-29T02:20:22.239Z,18.74
2022-07-29T02:22:25.861Z,18.76
2022-07-29T02:24:29.828Z,18.67
2022-07-29T02:26:33.403Z,18.60
2022-07-29T02:28:36.438Z,18.60
2022-07-29T02:30:43.378Z,18.64
2022-07-29T02:33:08.288Z,18.65
2022-07-29T02:35:15.054Z,18.67
2022-07-29T02:37:18.861Z,18.63
2022-07-29T02:39:22.461Z,18.59
2022-07-29T02:41:30.655Z,18.57
2022-07-29T02:43:35.082Z,18.57
2022-07-29T02:45:38.722Z,18.50
2022-07-29T02:47:46.071Z,18.58
2022-07-29T02:49:54.975Z,18.59
2022-07-29T02:52:02.675Z,18.64
2022-07-29T02:54:09.343Z,18.60
2022-07-29T02:56:15.139Z,18.58
2022-07-29T02:58:27.140Z,18.57
2022-07-29T03:00:32.061Z,18.51
2022-07-29T03:02:38.030Z,18.52
2022-07-29T03:04:42.809Z,18.51
2022-07-29T03:06:47.209Z,18.55
2022-07-29T03:08:51.748Z,18.49
2022-07-29T03:10:55.981Z,18.53
2022-07-29T03:13:00.332Z,18.53
2022-07-29T03:15:04.099Z,18.57
2022-07-29T03:17:07.668Z,18.59
2022-07-29T03:19:10.926Z,18.49
2022-07-29T03:21:13.891Z,18.37
2022-07-29T03:23:21.906Z,18.48
2022-07-29T03:25:28.074Z,18.40
2022-07-29T03:27:31.145Z,18.32
2022-07-29T03:29:34.939Z,18.42
2022-07-29T03:31:38.045Z,18.44
2022-07-29T03:33:41.574Z,18.46
2022-07-29T03:35:44.548Z,18.50
2022-07-29T03:37:47.985Z,18.48
2022-07-29T03:39:51.827Z,18.51
2022-07-29T03:41:58.191Z,18.50
2022-07-29T03:44:02.531Z,18.51
2022-07-29T03:46:09.376Z,18.46
2022-07-29T03:48:15.469Z,18.50
2022-07-29T03:50:20.367Z,18.43
2022-07-29T03:52:23.875Z,18.48
2022-07-29T03:54:26.877Z,18.39
2022-07-29T03:56:30.559Z,18.40
2022-07-29T03:58:35.369Z,18.45
2022-07-29T04:00:39.174Z,18.48
2022-07-29T04:02:46.092Z,18.46
2022-07-29T04:04:49.214Z,18.48
2022-07-29T04:06:52.325Z,18.38
2022-07-29T04:08:55.420Z,18.24
2022-07-29T04:10:58.883Z,18.41
2022-07-29T04:13:02.149Z,18.45
2022-07-29T04:15:07.650Z,18.44
2022-07-29T04:17:10.756Z,18.46
2022-07-29T04:19:13.915Z,18.44
2022-07-29T04:21:16.939Z,18.43
2022-07-29T04:23:20.012Z,18.45
2022-07-29T04:25:23.693Z,18.36
2022-07-29T04:27:27.008Z,18.39
2022-07-29T04:29:30.114Z,18.06
2022-07-29T04:31:34.804Z,18.15
2022-07-29T04:33:37.960Z,18.26
2022-07-29T04:35:45.766Z,18.23
2022-07-29T04:37:53.802Z,18.33
2022-07-29T04:39:57.621Z,18.35
2022-07-29T04:42:00.672Z,18.33
2022-07-29T04:44:07.190Z,18.37
2022-07-29T04:46:10.413Z,18.38
2022-07-29T04:48:15.035Z,18.32
2022-07-29T04:50:18.137Z,18.40
2022-07-29T04:52:21.172Z,18.39
2022-07-29T04:54:24.270Z,18.43
2022-07-29T04:56:29.503Z,18.49
2022-07-29T04:58:32.584Z,18.48
2022-07-29T05:00:35.694Z,18.42
2022-07-29T05:02:38.731Z,18.49
2022-07-29T05:04:43.182Z,18.51
2022-07-29T05:06:46.332Z,18.54
2022-07-29T05:08:49.338Z,18.58
2022-07-29T05:10:52.302Z,18.62
2022-07-29T05:12:55.182Z,18.64
2022-07-29T05:14:58.147Z,18.55
2022-07-29T05:17:01.612Z,18.59
2022-07-29T05:19:04.841Z,18.64
2022-07-29T05:21:12.904Z,18.57
2022-07-29T05:23:15.908Z,18.50
2022-07-29T05:25:19.033Z,18.58
2022-07-29T05:27:22.257Z,18.62
2022-07-29T05:29:44.703Z,18.67
2022-07-29T05:31:48.363Z,18.50
2022-07-29T05:33:51.279Z,18.63
2022-07-29T05:35:59.932Z,18.68
2022-07-29T05:38:06.234Z,18.75
2022-07-29T05:40:11.302Z,18.76
2022-07-29T05:42:14.321Z,18.73
2022-07-29T05:44:17.709Z,18.83
2022-07-29T05:46:21.225Z,18.84
2022-07-29T05:48:25.350Z,18.79
2022-07-29T05:50:28.485Z,18.85
2022-07-29T05:52:31.548Z,18.84
2022-07-29T05:54:36.624Z,18.95
2022-07-29T05:56:39.600Z,18.95
2022-07-29T05:58:42.595Z,19.03
2022-07-29T06:00:45.564Z,19.11
2022-07-29T06:02:48.704Z,19.13
2022-07-29T06:04:51.925Z,19.22
2022-07-29T06:06:54.903Z,19.35
2022-07-29T06:08:57.883Z,19.44
2022-07-29T06:11:02.328Z,19.67
2022-07-29T06:13:05.664Z,19.99
2022-07-29T06:15:09.979Z,20.42
2022-07-29T06:17:13.554Z,20.51
2022-07-29T06:19:16.804Z,20.60
2022-07-29T06:21:19.925Z,20.77
2022-07-29T06:23:23.259Z,20.77
2022-07-29T06:25:26.235Z,21.09
2022-07-29T06:27:30.857Z,21.08
2022-07-29T06:29:33.836Z,21.12
2022-07-29T06:31:36.951Z,21.16
2022-07-29T06:33:39.926Z,21.21
2022-07-29T06:35:48.434Z,21.10
2022-07-29T06:37:59.785Z,21.00
2022-07-29T06:40:20.375Z,20.80
2022-07-29T06:42:23.371Z,20.88
2022-07-29T06:44:28.069Z,20.83
2022-07-29T06:46:31.241Z,20.72
2022-07-29T06:48:36.075Z,20.70
2022-07-29T06:50:40.827Z,20.51
2022-07-29T06:52:43.758Z,20.21
2022-07-29T06:54:49.054Z,20.15
2022-07-29T06:56:52.024Z,20.24
2022-07-29T06:58:55.228Z,20.28
2022-07-29T07:01:01.223Z,20.32
2022-07-29T07:03:04.197Z,20.44
2022-07-29T07:05:08.395Z,20.61
2022-07-29T07:07:11.365Z,20.64
2022-07-29T07:09:14.314Z,20.42
2022-07-29T07:11:17.407Z,20.62
2022-07-29T07:13:20.732Z,20.63
2022-07-29T07:15:39.496Z,20.70
2022-07-29T07:17:44.805Z,20.51
2022-07-29T07:19:47.962Z,20.45
2022-07-29T07:21:51.085Z,20.49
2022-07-29T07:23:56.307Z,20.59
2022-07-29T07:25:59.828Z,20.63
2022-07-29T07:28:03.018Z,20.97
2022-07-29T07:30:07.776Z,21.11
2022-07-29T07:32:11.346Z,21.77
2022-07-29T07:34:16.654Z,21.08
2022-07-29T07:36:31.590Z,21.32
2022-07-29T07:38:35.115Z,21.78
2022-07-29T07:40:38.105Z,22.09
2022-07-29T07:42:41.688Z,22.23
2022-07-29T07:45:12.128Z,21.78
2022-07-29T07:47:12.375Z,22.34
2022-07-29T07:49:17.248Z,22.68
2022-07-29T07:51:20.342Z,22.77
2022-07-29T07:53:23.312Z,22.72
2022-07-29T07:55:27.058Z,22.98
2022-07-29T07:57:30.024Z,23.22
2022-07-29T07:59:33.110Z,22.85
2022-07-29T08:01:48.422Z,23.00
2022-07-29T08:03:59.015Z,23.02
2022-07-29T08:06:03.750Z,23.53
2022-07-29T08:08:07.067Z,23.53
2022-07-29T08:10:10.594Z,23.54
2022-07-29T08:12:13.544Z,23.59
2022-07-29T08:14:16.862Z,23.66
2022-07-29T08:16:21.249Z,23.92
2022-07-29T08:18:24.454Z,23.99
2022-07-29T08:20:27.850Z,24.24
2022-07-29T08:22:32.507Z,24.43
2022-07-29T08:24:53.446Z,24.46
2022-07-29T08:26:58.537Z,24.64
2022-07-29T08:29:01.545Z,24.55
2022-07-29T08:31:08.385Z,24.43
2022-07-29T08:33:11.492Z,24.71
2022-07-29T08:35:14.493Z,25.45
2022-07-29T08:37:17.443Z,25.60
2022-07-29T08:39:21.787Z,25.77
2022-07-29T08:41:25.224Z,25.73
2022-07-29T08:43:28.453Z,25.94
2022-07-29T08:45:31.855Z,26.10
2022-07-29T08:47:37.247Z,26.48
2022-07-29T08:49:40.386Z,26.50
2022-07-29T08:51:47.106Z,27.40
2022-07-29T08:53:52.578Z,27.54
2022-07-29T08:55:57.535Z,27.88
2022-07-29T08:58:00.881Z,27.90
2022-07-29T09:00:08.138Z,28.35
2022-07-29T09:02:20.455Z,28.31
2022-07-29T09:04:23.606Z,27.25
2022-07-29T09:06:28.888Z,26.66
2022-07-29T09:08:32.876Z,27.99
2022-07-29T09:10:37.543Z,28.48
2022-07-29T09:12:41.927Z,28.60
2022-07-29T09:14:44.936Z,28.48
2022-07-29T09:16:54.036Z,28.33
2022-07-29T09:18:57.466Z,28.51
2022-07-29T09:21:18.210Z,27.59
2022-07-29T09:23:23.052Z,28.07
2022-07-29T09:25:37.150Z,26.86
2022-07-29T09:27:42.084Z,27.73
2022-07-29T09:29:45.344Z,27.59
2022-07-29T09:31:49.988Z,27.90
2022-07-29T09:33:54.908Z,27.85
2022-07-29T09:36:01.914Z,27.88
2022-07-29T09:38:13.118Z,27.94
2022-07-29T09:40:18.575Z,27.79
2022-07-29T09:42:30.320Z,27.80
2022-07-29T09:44:45.681Z,27.57
2022-07-29T09:46:59.468Z,27.67
2022-07-29T09:49:08.971Z,27.61
2022-07-29T09:51:25.533Z,27.56
2022-07-29T09:53:34.002Z,27.67
2022-07-29T09:55:48.942Z,27.83
2022-07-29T09:57:52.057Z,27.75
2022-07-29T10:00:03.761Z,28.07
2022-07-29T10:02:18.916Z,28.28
2022-07-29T10:04:25.326Z,28.13
2022-07-29T10:06:28.514Z,28.11
2022-07-29T10:08:32.393Z,28.13
2022-07-29T10:10:36.953Z,28.08
2022-07-29T10:12:51.480Z,27.90
2022-07-29T10:14:55.020Z,27.76
2022-07-29T10:16:59.493Z,27.53
2022-07-29T10:19:03.243Z,27.33
2022-07-29T10:21:08.905Z,27.28
2022-07-29T10:23:11.897Z,26.51
2022-07-29T10:25:16.416Z,26.53
2022-07-29T10:27:19.657Z,26.51
2022-07-29T10:29:22.580Z,26.29
2022-07-29T10:31:31.175Z,26.22
2022-07-29T10:33:49.031Z,26.18
2022-07-29T10:36:07.982Z,26.09
2022-07-29T10:38:45.719Z,25.99
2022-07-29T10:41:19.366Z,25.83
2022-07-29T10:43:25.382Z,25.71
2022-07-29T10:47:31.488Z,25.29
2022-07-29T10:49:41.182Z,25.29
2022-07-29T10:51:58.565Z,25.12
2022-07-29T10:54:05.885Z,25.02
2022-07-29T10:56:25.587Z,24.91
2022-07-29T10:58:28.687Z,24.80
2022-07-29T11:00:33.821Z,24.72
2022-07-29T11:02:49.847Z,24.63
2022-07-29T11:05:05.212Z,24.51
2022-07-29T11:07:11.257Z,24.50
2022-07-29T11:09:20.346Z,24.39
2022-07-29T11:11:35.276Z,23.86
2022-07-29T11:13:49.445Z,23.94
2022-07-29T11:15:56.595Z,23.99
2022-07-29T11:18:15.097Z,24.08
2022-07-29T11:20:36.596Z,24.16
2022-07-29T11:22:43.162Z,24.05
2022-07-29T11:25:17.691Z,24.18
2022-07-29T11:27:23.085Z,24.18
2022-07-29T11:29:26.353Z,24.29
2022-07-29T11:31:39.571Z,24.26
2022-07-29T11:33:56.158Z,24.32
2022-07-29T11:36:16.594Z,24.44
2022-07-29T11:38:28.100Z,24.51
2022-07-29T11:40:31.437Z,24.59
2022-07-29T11:42:47.669Z,24.86
2022-07-29T11:44:57.188Z,25.05
2022-07-29T11:47:01.260Z,25.21
2022-07-29T11:49:04.895Z,25.34
2022-07-29T11:51:14.265Z,25.50
2022-07-29T11:53:19.200Z,25.56
2022-07-29T11:55:25.179Z,25.61
2022-07-29T11:57:37.315Z,25.58
2022-07-29T11:59:42.604Z,25.74
2022-07-29T12:02:12.148Z,25.80
2022-07-29T12:04:17.488Z,25.79
2022-07-29T12:06:24.246Z,25.60
2022-07-29T12:08:28.639Z,25.63
2022-07-29T12:10:33.881Z,25.34
2022-07-29T12:12:37.550Z,25.31
2022-07-29T12:14:46.701Z,25.29
2022-07-29T12:16:49.780Z,25.16
2022-07-29T12:18:59.925Z,25.11
2022-07-29T12:21:07.242Z,24.96
2022-07-29T12:23:14.023Z,24.93
2022-07-29T12:25:35.000Z,24.94
2022-07-29T12:27:40.475Z,24.90
2022-07-29T12:29:47.950Z,24.80
2022-07-29T12:31:57.861Z,24.65
2022-07-29T12:34:01.316Z,24.63
2022-07-29T12:36:12.794Z,24.64
2022-07-29T12:38:22.193Z,24.60
2022-07-29T12:40:25.220Z,24.32
2022-07-29T12:42:28.308Z,24.40
2022-07-29T12:44:46.087Z,24.46
2022-07-29T12:47:03.933Z,24.39
2022-07-29T12:49:07.011Z,24.28
2022-07-29T12:51:11.071Z,24.36
2022-07-29T12:53:15.009Z,24.39
2022-07-29T12:55:44.281Z,24.33
2022-07-29T12:57:48.714Z,24.40
2022-07-29T13:00:05.838Z,24.41
2022-07-29T13:02:09.146Z,24.42
2022-07-29T13:04:12.316Z,24.42
2022-07-29T13:06:35.795Z,24.47
2022-07-29T13:08:38.811Z,24.48
2022-07-29T13:10:43.695Z,24.35
2022-07-29T13:13:10.453Z,24.34
2022-07-29T13:15:17.713Z,24.44
2022-07-29T13:17:23.788Z,24.43
2022-07-29T13:19:36.048Z,24.45
2022-07-29T13:21:40.079Z,24.40
2022-07-29T13:23:43.574Z,24.33
2022-07-29T13:25:47.976Z,24.32
2022-07-29T13:27:50.920Z,24.24
2022-07-29T13:29:58.788Z,24.18
2022-07-29T13:32:02.005Z,24.05
2022-07-29T13:34:05.049Z,23.95
2022-07-29T13:36:10.848Z,23.87
2022-07-29T13:38:13.863Z,23.58
2022-07-29T13:40:16.909Z,23.70
2022-07-29T13:42:21.499Z,23.73
2022-07-29T13:44:25.738Z,23.80
2022-07-29T13:46:28.968Z,24.03
2022-07-29T13:48:32.014Z,24.23
2022-07-29T13:50:35.182Z,24.45
2022-07-29T13:52:38.547Z,24.59
2022-07-29T13:54:42.723Z,24.87
2022-07-29T13:56:46.320Z,25.25
2022-07-29T13:58:51.186Z,25.28
2022-07-29T14:00:54.286Z,25.40
2022-07-29T14:02:57.857Z,25.38
2022-07-29T14:05:04.956Z,25.52
2022-07-29T14:07:11.013Z,25.72
2022-07-29T14:09:19.621Z,25.78
2022-07-29T14:11:22.894Z,25.93
2022-07-29T14:13:26.341Z,25.82
2022-07-29T14:15:31.016Z,25.85
2022-07-29T14:17:34.161Z,26.14
2022-07-29T14:19:39.151Z,26.19
2022-07-29T14:21:42.535Z,26.31
2022-07-29T14:23:48.695Z,26.40
2022-07-29T14:25:52.289Z,26.33
2022-07-29T14:27:56.698Z,26.56
2022-07-29T14:30:01.657Z,26.60
2022-07-29T14:32:07.235Z,26.59
2022-07-29T14:34:10.308Z,26.27
2022-07-29T14:36:13.451Z,26.24
2022-07-29T14:38:16.396Z,26.44
2022-07-29T14:40:19.464Z,26.00
2022-07-29T14:42:22.514Z,26.41
2022-07-29T14:44:30.080Z,26.55
2022-07-29T14:46:33.087Z,26.35
2022-07-29T14:48:37.550Z,26.45
2022-07-29T14:50:40.572Z,26.47
2022-07-29T14:52:43.880Z,26.55
2022-07-29T14:54:47.030Z,26.63
2022-07-29T14:56:51.849Z,26.53
2022-07-29T14:58:54.886Z,26.58
2022-07-29T15:00:58.624Z,26.44
2022-07-29T15:03:03.039Z,26.41
2022-07-29T15:05:08.329Z,26.18
2022-07-29T15:07:11.351Z,26.32
2022-07-29T15:09:14.969Z,26.33
2022-07-29T15:11:18.005Z,26.44
2022-07-29T15:13:21.211Z,26.40
2022-07-29T15:15:25.254Z,26.42
2022-07-29T15:17:28.272Z,26.43
2022-07-29T15:19:31.514Z,26.55
2022-07-29T15:21:35.968Z,26.51
2022-07-29T15:23:46.628Z,26.36
2022-07-29T15:25:49.655Z,26.43
2022-07-29T15:27:54.711Z,26.29
2022-07-29T15:29:59.721Z,26.42
2022-07-29T15:32:03.411Z,26.38
2022-07-29T15:34:06.820Z,26.41
2022-07-29T15:36:09.821Z,26.37
2022-07-29T15:38:14.362Z,26.25
2022-07-29T15:40:17.511Z,26.23
2022-07-29T15:42:20.820Z,26.33
2022-07-29T15:44:24.587Z,26.32
2022-07-29T15:46:45.222Z,26.24
2022-07-29T15:48:48.651Z,26.26
2022-07-29T15:50:52.328Z,26.22
2022-07-29T15:52:55.395Z,26.15
2022-07-29T15:55:00.518Z,26.13
2022-07-29T15:57:03.736Z,26.14
2022-07-29T15:59:06.973Z,26.19
2022-07-29T16:01:10.101Z,26.14
2022-07-29T16:03:13.138Z,26.11
2022-07-29T16:05:16.471Z,26.09
2022-07-29T16:07:19.494Z,26.06
2022-07-29T16:09:22.946Z,26.11
2022-07-29T16:11:27.438Z,26.08
2022-07-29T16:13:30.746Z,26.03
2022-07-29T16:15:34.422Z,26.01
2022-07-29T16:17:37.620Z,25.96
2022-07-29T16:19:40.611Z,25.99
2022-07-29T16:21:43.679Z,26.05
2022-07-29T16:23:46.661Z,26.05
2022-07-29T16:25:59.806Z,26.01
2022-07-29T16:28:05.544Z,26.04
2022-07-29T16:30:10.805Z,26.06
2022-07-29T16:32:13.883Z,26.05
2022-07-29T16:34:16.987Z,26.06
2022-07-29T16:36:20.621Z,26.11
2022-07-29T16:38:23.938Z,26.15
2022-07-29T16:40:27.168Z,26.19
2022-07-29T16:42:46.034Z,26.14
2022-07-29T16:44:51.277Z,26.12
2022-07-29T16:46:56.113Z,26.07
2022-07-29T16:49:02.029Z,26.12
2022-07-29T16:51:08.226Z,25.98
2022-07-29T16:53:11.643Z,25.89
2022-07-29T16:55:14.697Z,25.81
2022-07-29T16:57:18.161Z,25.80
2022-07-29T16:59:21.204Z,25.76
2022-07-29T17:01:25.903Z,25.78
2022-07-29T17:03:30.286Z,25.84
2022-07-29T17:05:52.307Z,25.82
2022-07-29T17:07:58.425Z,25.79
2022-07-29T17:10:05.049Z,25.77
2022-07-29T17:12:08.703Z,25.81
2022-07-29T17:14:11.950Z,25.84
2022-07-29T17:16:15.008Z,25.89
2022-07-29T17:18:19.374Z,25.91
2022-07-29T17:20:23.610Z,25.89
2022-07-29T17:22:26.657Z,25.94
2022-07-29T17:24:32.030Z,25.89
2022-07-29T17:26:35.238Z,25.85
2022-07-29T17:28:39.090Z,25.86
2022-07-29T17:30:42.116Z,25.85
2022-07-29T17:32:45.123Z,25.79
2022-07-29T17:34:49.634Z,25.74
2022-07-29T17:36:51.635Z,25.64
2022-07-29T17:38:56.606Z,25.63
2022-07-29T17:41:00.003Z,25.60
2022-07-29T17:43:04.725Z,25.57
2022-07-29T17:45:09.034Z,25.57
2022-07-29T17:47:15.951Z,25.56
2022-07-29T17:49:20.017Z,25.59
2022-07-29T17:51:25.946Z,25.60
2022-07-29T17:53:29.035Z,25.63
2022-07-29T17:55:32.220Z,25.64
2022-07-29T17:57:35.259Z,25.62
2022-07-29T17:59:38.386Z,25.62
2022-07-29T18:01:42.226Z,25.62
2022-07-29T18:03:45.701Z,25.61
2022-07-29T18:05:49.423Z,25.60
2022-07-29T18:07:55.744Z,25.55
2022-07-29T18:10:00.763Z,25.49
2022-07-29T18:12:04.111Z,25.52
2022-07-29T18:14:07.084Z,25.35
2022-07-29T18:16:10.270Z,25.35
2022-07-29T18:18:13.581Z,25.32
2022-07-29T18:20:16.612Z,25.32
2022-07-29T18:22:19.789Z,25.28
2022-07-29T18:24:25.553Z,25.21
2022-07-29T18:26:30.488Z,25.22
2022-07-29T18:28:33.754Z,25.19
2022-07-29T18:30:37.876Z,25.17
2022-07-29T18:32:40.912Z,25.16
2022-07-29T18:34:44.803Z,25.10
2022-07-29T18:36:48.455Z,25.04
2022-07-29T18:38:51.535Z,24.98
2022-07-29T18:40:56.679Z,24.92
2022-07-29T18:42:59.731Z,24.88
2022-07-29T18:45:02.747Z,24.82
2022-07-29T18:47:07.252Z,24.74
2022-07-29T18:49:14.843Z,24.71
2022-07-29T18:51:17.921Z,24.66
2022-07-29T18:53:21.336Z,24.57
2022-07-29T18:55:24.746Z,24.47
2022-07-29T18:57:53.767Z,24.48
2022-07-29T18:59:54.222Z,24.41
2022-07-29T19:01:57.723Z,24.36
2022-07-29T19:04:01.366Z,24.28
2022-07-29T19:06:06.704Z,24.19
2022-07-29T19:08:12.645Z,24.14
2022-07-29T19:10:15.575Z,24.01
2022-07-29T19:12:18.808Z,23.91
2022-07-29T19:14:23.212Z,23.89
2022-07-29T19:16:26.506Z,23.66
2022-07-29T19:18:29.573Z,23.62
2022-07-29T19:20:32.489Z,23.49
2022-07-29T19:22:35.595Z,23.46
2022-07-29T19:24:39.933Z,23.45
2022-07-29T19:26:46.791Z,23.42
2022-07-29T19:28:50.261Z,23.35
2022-07-29T19:30:54.833Z,23.26
2022-07-29T19:32:58.162Z,23.17
2022-07-29T19:35:18.638Z,23.12
2022-07-29T19:37:21.936Z,23.07
2022-07-29T19:39:31.952Z,23.00
2022-07-29T19:41:39.049Z,22.99
2022-07-29T19:43:49.732Z,22.97
2022-07-29T19:45:56.785Z,22.95
2022-07-29T19:48:01.768Z,22.91
2022-07-29T19:50:05.531Z,22.91
2022-07-29T19:52:08.493Z,22.84
2022-07-29T19:54:11.566Z,22.73
2022-07-29T19:56:14.719Z,22.67
2022-07-29T19:58:18.146Z,22.63
2022-07-29T20:00:26.012Z,22.54
2022-07-29T20:02:30.798Z,22.44
2022-07-29T20:04:33.849Z,22.36
2022-07-29T20:06:39.554Z,22.32
2022-07-29T20:08:42.555Z,22.27
2022-07-29T20:10:47.003Z,22.22
2022-07-29T20:12:50.110Z,22.15
2022-07-29T20:14:59.669Z,22.02
2022-07-29T20:17:05.963Z,21.96
2022-07-29T20:19:10.367Z,21.88
2022-07-29T20:21:13.692Z,21.80
2022-07-29T20:23:19.367Z,21.77
2022-07-29T20:25:22.433Z,21.72
2022-07-29T20:27:25.546Z,21.70
2022-07-29T20:29:30.119Z,21.66
2022-07-29T20:31:33.167Z,21.64
2022-07-29T20:33:36.600Z,21.66
2022-07-29T20:35:41.211Z,21.62
2022-07-29T20:37:52.342Z,21.50
2022-07-29T20:39:59.372Z,21.47
2022-07-29T20:42:04.786Z,21.42
2022-07-29T20:44:07.843Z,21.38
2022-07-29T20:46:11.194Z,21.34
2022-07-29T20:48:14.435Z,21.29
2022-07-29T20:50:17.809Z,21.25
2022-07-29T20:52:23.393Z,21.15
2022-07-29T20:54:26.702Z,21.13
2022-07-29T20:56:29.796Z,21.13
2022-07-29T20:58:34.151Z,21.11
2022-07-29T21:00:37.620Z,21.06
2022-07-29T21:02:40.665Z,21.01
2022-07-29T21:04:43.957Z,20.98
2022-07-29T21:06:47.085Z,20.96
2022-07-29T21:08:51.823Z,20.85
2022-07-29T21:10:55.129Z,20.83
2022-07-29T21:12:58.181Z,20.76
2022-07-29T21:15:05.686Z,20.73
2022-07-29T21:17:08.710Z,20.52
2022-07-29T21:19:11.833Z,20.44
2022-07-29T21:21:15.846Z,20.49
2022-07-29T21:23:18.875Z,20.51
2022-07-29T21:25:24.894Z,20.49
2022-07-29T21:27:45.164Z,20.43
2022-07-29T21:29:48.414Z,20.39
2022-07-29T21:31:51.455Z,20.36
2022-07-29T21:33:54.402Z,20.32
2022-07-29T21:38:21.782Z,20.26
2022-07-29T21:40:26.144Z,20.21
2022-07-29T21:42:29.118Z,20.20
2022-07-29T21:44:32.019Z,20.18
2022-07-29T21:46:36.515Z,20.21
2022-07-29T21:48:44.198Z,20.23
2022-07-29T21:50:48.489Z,20.18
2022-07-29T21:52:51.486Z,20.11
2022-07-29T21:54:54.752Z,20.03
2022-07-29T21:56:59.876Z,20.11
2022-07-29T21:59:03.905Z,19.96
2022-07-29T22:01:12.586Z,19.88
2022-07-29T22:03:16.005Z,19.79
2022-07-29T22:05:19.697Z,19.84
2022-07-29T22:07:22.741Z,19.98
2022-07-29T22:09:25.989Z,20.03
2022-07-29T22:11:29.153Z,20.00
2022-07-29T22:13:33.457Z,20.11
2022-07-29T22:15:42.044Z,20.10
2022-07-29T22:17:48.356Z,20.14
2022-07-29T22:19:51.363Z,20.12
2022-07-29T22:21:54.329Z,20.15
2022-07-29T22:23:58.278Z,19.98
2022-07-29T22:26:01.225Z,19.96
2022-07-29T22:28:04.452Z,20.05
2022-07-29T22:30:09.954Z,20.09
2022-07-29T22:33:02.168Z,20.15
2022-07-29T22:35:05.986Z,20.14
2022-07-29T22:37:08.956Z,20.10
2022-07-29T22:39:12.041Z,20.06
2022-07-29T22:41:18.753Z,20.05
2022-07-29T22:43:21.943Z,20.03
2022-07-29T22:45:26.320Z,20.05
2022-07-29T22:47:46.382Z,20.02
2022-07-29T22:49:51.717Z,20.04
2022-07-29T22:51:54.709Z,20.04
2022-07-29T22:53:57.666Z,20.04
2022-07-29T22:56:00.675Z,20.05
2022-07-29T22:58:03.641Z,20.06
2022-07-29T23:00:07.749Z,20.06
2022-07-29T23:02:12.104Z,20.09
2022-07-29T23:04:15.116Z,20.08
2022-07-29T23:06:18.650Z,20.08
2022-07-29T23:08:23.082Z,20.04
2022-07-29T23:10:26.395Z,19.99
2022-07-29T23:12:29.294Z,19.98
2022-07-29T23:14:32.631Z,19.97
2022-07-29T23:16:35.631Z,20.00
2022-07-29T23:18:40.579Z,20.03
2022-07-29T23:20:44.116Z,19.96
2022-07-29T23:22:47.062Z,20.03
2022-07-29T23:24:50.040Z,20.02
2022-07-29T23:26:53.973Z,19.86
2022-07-29T23:28:57.209Z,19.96
2022-07-29T23:31:00.508Z,19.90
2022-07-29T23:33:03.478Z,19.93
2022-07-29T23:35:09.841Z,20.03
2022-07-29T23:37:14.225Z,20.06
2022-07-29T23:39:17.353Z,20.02
2022-07-29T23:41:21.450Z,19.96
2022-07-29T23:43:24.431Z,19.98
2022-07-29T23:45:33.081Z,20.01
2022-07-29T23:47:48.042Z,19.96
2022-07-29T23:49:51.053Z,20.01
2022-07-29T23:51:55.402Z,19.93
2022-07-29T23:53:58.354Z,19.92
2022-07-29T23:56:01.346Z,19.98
2022-07-29T23:58:04.292Z,20.03
